Weather at Rhodes Ridge Airport

Public forecast

Using degrees Celsius for public forecast. Weather courtesy of forecast.io.

Closest aviation weather report (METAR) to Rhodes Ridge Airport

Report is more than 6 hours old.

Closest report is Newman Airport, 31.0 nm (57.4 km) SE. Retrieved 2022/06/26 02:23 UTC (11 days ago):

YNWN 260223Z AUTO 09015G25KT 9999 // NCD 20/03 Q1024

Closest aviation forecast (TAF) to Rhodes Ridge Airport

Forecast is more than 12 hours old.

Closest forecast is Telfer Airport, 179.7 nm (332.9 km) ENE. Retrieved 2017/06/24 02:03 UTC (5 years ago):

TAF TAF YTEF 240051Z 2402/2414 12005KT CAVOK FM240500 33005KT 9999 -SHRA SCT060 BKN100